Accueil
METAR-TAF:

METAR-TAF

Aéroports :

Nouakchott, Mauritanie

Aéroport international de Nouakchott-Oumtounsy

latitude: 18-18-36N, longitude: 015-58-11W, altitude: 3 m

Observation

Le bulletin a été fait il y a 34 minutes, à 21:30 UTC
Vent 8 kt de nord-est
Température 20°C
Humidité 17%
Pression 1015 hPa
Visibilité: 4000 m
poussière généralisée

METAR: GQNO 222130Z 05008KT 4000 DU NSC 20/M06 Q1015 NOSIG

Heure: 22:04 (22:04 UTC)

Prévision

Le bulletin a été fait il y a 5 heures et 4 minutes, à 17:00 UTC
Prévision valable du 22 à 18 UTC au 23 à 24 UTC
Vent 12 kt de est/nord-est
Visibilité: 5000 m
poussière généralisée
Temporairement
du 23 à 10 UTC au 23 à 16 UTC
Visibilité: 3000 m
Chasse-sable élevée

TAF: GQNO 221700Z 2218/2324 07012KT 5000 DU NSC TEMPO 2310/2316 3000 BLSA

Observations et prévisions météorologiques de plus de 4000 aéroports (messages METAR et TAF).

Les stations disponibles sont représentées par des disques jaunes et rouges sur la carte.

Passer la souris dessus pour voir le nom de la station.

Cliquer dessus pour voir les observations et prévisions météorologiques.

Pour changer de carte: cliquez sur les boutons verts avec une croix noire pour zoomer, sur le bouton vert avec un tiret pour effectuer un zoom arrière, ou sur les flèches vertes pour les cartes adjacentes.


METAR-TAF: